createdAt,value
2023-03-27T00:01:13.548Z,-1.84
2023-03-27T00:06:36.681Z,-1.76
2023-03-27T00:11:59.611Z,-1.74
2023-03-27T00:17:22.389Z,-1.80
2023-03-27T00:22:44.632Z,-1.83
2023-03-27T00:28:08.745Z,-1.89
2023-03-27T00:33:31.668Z,-1.94
2023-03-27T00:38:54.490Z,-2.00
2023-03-27T00:44:36.484Z,-2.07
2023-03-27T00:50:00.804Z,-2.09
2023-03-27T00:55:26.461Z,-2.17
2023-03-27T01:00:50.470Z,-2.36
2023-03-27T01:06:14.727Z,-2.34
2023-03-27T01:12:17.463Z,-2.45
2023-03-27T01:17:59.506Z,-2.48
2023-03-27T01:29:59.831Z,-2.28
2023-03-27T01:36:09.293Z,-2.42
2023-03-27T01:41:50.228Z,-2.50
2023-03-27T01:47:20.470Z,-2.47
2023-03-27T01:53:09.662Z,-2.14
2023-03-27T01:58:48.342Z,-2.06
2023-03-27T02:04:15.306Z,-1.72
2023-03-27T02:09:51.578Z,-1.63
2023-03-27T02:15:25.168Z,-1.52
2023-03-27T02:20:48.720Z,-1.12
2023-03-27T02:26:13.757Z,-1.09
2023-03-27T02:31:59.460Z,-1.15
2023-03-27T02:37:33.128Z,-1.12
2023-03-27T02:43:24.989Z,-1.04
2023-03-27T02:48:57.223Z,-0.88
2023-03-27T02:54:30.548Z,-0.90
2023-03-27T02:59:57.882Z,-0.93
2023-03-27T03:05:25.406Z,-0.71
2023-03-27T03:10:51.356Z,-0.56
2023-03-27T03:16:14.407Z,-0.56
2023-03-27T03:21:38.133Z,-0.54
2023-03-27T03:27:00.869Z,-0.50
2023-03-27T03:32:23.590Z,-0.52
2023-03-27T03:37:49.547Z,-0.50
2023-03-27T03:43:12.193Z,-0.52
2023-03-27T03:48:35.194Z,-0.52
2023-03-27T03:53:57.616Z,-0.33
2023-03-27T03:59:22.066Z,-0.21
2023-03-27T04:04:46.582Z,-0.12
2023-03-27T04:10:09.465Z,0.01
2023-03-27T04:15:32.697Z,0.08
2023-03-27T04:20:55.530Z,0.00
2023-03-27T04:26:19.509Z,-0.06
2023-03-27T04:31:43.427Z,-0.12
2023-03-27T04:37:06.279Z,-0.18
2023-03-27T04:42:29.019Z,-0.18
2023-03-27T04:47:52.151Z,-0.18
2023-03-27T04:53:14.460Z,-0.06
2023-03-27T04:58:38.043Z,0.05
2023-03-27T05:04:02.682Z,0.13
2023-03-27T05:09:26.046Z,0.17
2023-03-27T05:14:49.002Z,0.24
2023-03-27T05:20:21.332Z,0.34
2023-03-27T05:25:59.770Z,0.39
2023-03-27T05:31:11.674Z,0.43
2023-03-27T05:36:35.800Z,0.47
2023-03-27T05:41:58.406Z,0.53
2023-03-27T05:47:21.196Z,0.65
2023-03-27T05:52:43.663Z,0.72
2023-03-27T05:58:07.782Z,0.77
2023-03-27T06:03:47.719Z,0.97
2023-03-27T06:09:10.250Z,0.84
2023-03-27T06:14:32.507Z,0.88
2023-03-27T06:19:55.467Z,0.91
2023-03-27T06:25:18.035Z,0.94
2023-03-27T06:30:42.427Z,1.04
2023-03-27T06:36:05.791Z,1.30
2023-03-27T06:41:30.922Z,1.50
2023-03-27T06:46:53.309Z,1.52
2023-03-27T06:52:16.174Z,1.63
2023-03-27T06:57:38.618Z,1.52
2023-03-27T07:03:03.055Z,1.57
2023-03-27T07:08:28.421Z,1.61
2023-03-27T07:13:50.835Z,1.61
2023-03-27T07:19:13.156Z,1.61
2023-03-27T07:24:35.461Z,1.90
2023-03-27T07:29:59.709Z,2.07
2023-03-27T07:35:22.296Z,2.12
2023-03-27T07:40:46.483Z,2.28
2023-03-27T07:46:09.522Z,2.45
2023-03-27T07:51:33.267Z,2.39
2023-03-27T07:56:55.706Z,2.42
2023-03-27T08:02:18.062Z,2.33
2023-03-27T08:07:45.571Z,2.59
2023-03-27T08:13:08.784Z,2.55
2023-03-27T08:18:31.244Z,2.57
2023-03-27T08:23:57.844Z,2.62
2023-03-27T08:29:21.331Z,2.48
2023-03-27T08:34:43.921Z,2.40
2023-03-27T08:40:10.804Z,2.42
2023-03-27T08:45:43.880Z,2.32
2023-03-27T08:51:22.998Z,2.39
2023-03-27T08:56:45.780Z,2.36
2023-03-27T09:02:59.624Z,2.67
2023-03-27T09:08:25.869Z,2.57
2023-03-27T09:13:54.053Z,2.48
2023-03-27T09:19:55.961Z,2.77
2023-03-27T09:25:25.789Z,3.16
2023-03-27T09:30:51.850Z,3.31
2023-03-27T09:36:24.879Z,3.15
2023-03-27T09:41:55.757Z,2.93
2023-03-27T09:47:23.054Z,3.20
2023-03-27T09:52:49.097Z,3.08
2023-03-27T09:58:39.271Z,2.88
2023-03-27T10:04:07.801Z,3.02
2023-03-27T10:09:48.989Z,3.25
2023-03-27T10:20:49.753Z,3.41
2023-03-27T10:26:17.589Z,2.92
2023-03-27T10:31:45.713Z,2.75
2023-03-27T10:37:12.270Z,2.76
2023-03-27T10:42:37.525Z,2.43
2023-03-27T10:48:04.524Z,4.35
2023-03-27T10:53:40.927Z,2.78
2023-03-27T10:59:28.204Z,1.17
2023-03-27T11:04:54.781Z,0.76
2023-03-27T11:10:29.966Z,1.06
2023-03-27T11:16:17.532Z,1.38
2023-03-27T11:21:56.580Z,1.91
2023-03-27T11:27:32.850Z,2.27
2023-03-27T11:33:17.559Z,2.50
2023-03-27T11:38:51.669Z,3.05
2023-03-27T11:44:15.783Z,3.47
2023-03-27T11:50:11.577Z,4.91
2023-03-27T11:55:49.517Z,4.63
2023-03-27T12:01:37.862Z,5.68
2023-03-27T12:07:23.625Z,5.03
2023-03-27T12:13:03.303Z,4.20
2023-03-27T12:19:20.993Z,3.63
2023-03-27T12:24:57.415Z,3.96
2023-03-27T12:30:49.195Z,4.60
2023-03-27T12:36:16.478Z,4.37
2023-03-27T12:41:49.730Z,4.65
2023-03-27T12:47:32.028Z,2.83
2023-03-27T12:52:58.039Z,2.12
2023-03-27T12:58:24.393Z,2.15
2023-03-27T13:04:07.597Z,2.28
2023-03-27T13:10:12.954Z,2.53
2023-03-27T13:16:08.942Z,2.73
2023-03-27T13:22:00.094Z,3.45
2023-03-27T13:27:58.140Z,2.48
2023-03-27T13:33:40.201Z,2.21
2023-03-27T13:39:13.907Z,1.85
2023-03-27T13:45:08.076Z,1.49
2023-03-27T13:50:59.471Z,1.66
2023-03-27T13:56:55.642Z,2.12
2023-03-27T14:02:41.612Z,2.73
2023-03-27T14:08:37.142Z,1.64
2023-03-27T14:14:27.236Z,1.42
2023-03-27T14:20:22.544Z,0.74
2023-03-27T14:25:52.164Z,2.74
2023-03-27T14:31:19.707Z,4.15
2023-03-27T14:36:49.587Z,4.91
2023-03-27T14:42:18.097Z,3.88
2023-03-27T14:47:43.562Z,3.20
2023-03-27T14:53:09.706Z,4.25
2023-03-27T14:58:35.558Z,3.21
2023-03-27T15:03:58.522Z,3.24
2023-03-27T15:09:26.895Z,4.46
2023-03-27T15:14:52.005Z,4.51
2023-03-27T15:20:20.843Z,4.89
2023-03-27T15:26:03.759Z,5.75
2023-03-27T15:31:29.222Z,4.78
2023-03-27T15:36:55.280Z,4.60
2023-03-27T15:42:28.567Z,3.61
2023-03-27T15:47:51.573Z,4.03
2023-03-27T15:53:15.244Z,4.19
2023-03-27T15:58:48.343Z,4.54
2023-03-27T16:04:19.679Z,4.07
2023-03-27T16:09:49.765Z,3.79
2023-03-27T16:15:16.383Z,4.17
2023-03-27T16:20:45.964Z,4.18
2023-03-27T16:26:08.769Z,3.65
2023-03-27T16:31:36.184Z,3.65
2023-03-27T16:36:59.942Z,3.20
2023-03-27T16:42:26.493Z,3.02
2023-03-27T16:47:53.146Z,2.72
2023-03-27T16:53:14.244Z,2.04
2023-03-27T16:58:36.829Z,1.49
2023-03-27T17:03:59.456Z,1.21
2023-03-27T17:09:23.478Z,1.04
2023-03-27T17:14:46.287Z,0.85
2023-03-27T17:20:09.427Z,0.75
2023-03-27T17:25:31.772Z,0.50
2023-03-27T17:31:04.021Z,0.31
2023-03-27T17:36:38.786Z,0.14
2023-03-27T17:41:51.125Z,-0.08
2023-03-27T17:47:13.882Z,-0.23
2023-03-27T17:52:36.294Z,-0.67
2023-03-27T17:58:08.748Z,-1.01
2023-03-27T18:03:23.641Z,-1.18
2023-03-27T18:08:47.158Z,-1.46
2023-03-27T18:14:09.662Z,-1.68
2023-03-27T18:19:32.866Z,-1.89
2023-03-27T18:24:55.323Z,-2.02
2023-03-27T18:30:19.201Z,-2.11
2023-03-27T18:35:43.173Z,-2.27
2023-03-27T18:41:07.273Z,-2.52
2023-03-27T18:46:29.946Z,-2.61
2023-03-27T18:51:52.718Z,-2.44
2023-03-27T18:57:17.891Z,-2.40
2023-03-27T19:02:41.851Z,-2.36
2023-03-27T19:08:04.241Z,-2.48
2023-03-27T19:13:26.544Z,-2.69
2023-03-27T19:18:50.084Z,-2.91
2023-03-27T19:24:12.585Z,-3.24
2023-03-27T19:29:36.053Z,-3.33
2023-03-27T19:34:58.426Z,-3.56
2023-03-27T19:40:21.906Z,-3.81
2023-03-27T19:45:46.014Z,-3.72
2023-03-27T19:51:18.604Z,-3.73
2023-03-27T19:56:35.575Z,-3.82
2023-03-27T20:01:58.081Z,-3.91
2023-03-27T20:07:20.997Z,-4.06
2023-03-27T20:12:44.268Z,-3.92
2023-03-27T20:18:06.667Z,-3.82
2023-03-27T20:23:31.658Z,-3.98
2023-03-27T20:28:54.431Z,-4.17
2023-03-27T20:34:20.179Z,-4.03
2023-03-27T20:39:47.575Z,-3.95
2023-03-27T20:45:11.652Z,-3.98
2023-03-27T20:50:36.229Z,-4.06
2023-03-27T20:56:05.538Z,-4.16
2023-03-27T21:01:29.575Z,-4.08
2023-03-27T21:06:55.624Z,-4.05
2023-03-27T21:12:18.310Z,-4.04
2023-03-27T21:17:40.779Z,-4.06
2023-03-27T21:23:03.061Z,-4.14
2023-03-27T21:28:25.925Z,-4.04
2023-03-27T21:33:48.675Z,-3.94
2023-03-27T21:39:11.102Z,-3.95
2023-03-27T21:44:33.343Z,-4.12
2023-03-27T21:49:55.740Z,-4.20
2023-03-27T21:55:18.049Z,-4.20
2023-03-27T22:00:40.308Z,-4.40
2023-03-27T22:11:26.587Z,-4.24
2023-03-27T22:16:48.874Z,-4.13
2023-03-27T22:22:11.180Z,-4.10
2023-03-27T22:27:33.518Z,-4.16
2023-03-27T22:32:55.850Z,-4.12
2023-03-27T22:38:18.144Z,-4.05
2023-03-27T22:43:41.940Z,-4.22
2023-03-27T22:49:08.551Z,-4.25
2023-03-27T22:54:31.730Z,-4.04
2023-03-27T22:59:54.233Z,-3.94
2023-03-27T23:05:16.729Z,-3.70
2023-03-27T23:10:40.076Z,-3.53
2023-03-27T23:16:03.019Z,-3.39
2023-03-27T23:21:26.881Z,-3.27
2023-03-27T23:26:49.365Z,-3.19
2023-03-27T23:32:12.347Z,-3.10
2023-03-27T23:37:35.552Z,-3.02
2023-03-27T23:42:57.786Z,-3.03
2023-03-27T23:48:20.028Z,-3.18
2023-03-27T23:53:43.464Z,-3.37
2023-03-27T23:59:05.688Z,-3.49
